createdAt,value
2022-12-05T00:00:12.122Z,12.53
2022-12-05T00:03:21.392Z,11.17
2022-12-05T00:06:29.082Z,15.23
2022-12-05T00:09:38.508Z,9.87
2022-12-05T00:12:44.565Z,9.93
2022-12-05T00:15:50.892Z,13.17
2022-12-05T00:18:58.922Z,13.90
2022-12-05T00:22:05.772Z,15.33
2022-12-05T00:25:12.556Z,13.47
2022-12-05T00:28:23.086Z,13.63
2022-12-05T00:31:31.682Z,11.47
2022-12-05T00:34:41.872Z,12.90
2022-12-05T00:37:48.750Z,15.13
2022-12-05T00:41:00.414Z,14.83
2022-12-05T00:44:06.554Z,12.30
2022-12-05T00:47:14.638Z,13.57
2022-12-05T00:50:24.517Z,13.83
2022-12-05T00:53:34.522Z,14.57
2022-12-05T00:56:42.511Z,13.00
2022-12-05T00:59:55.186Z,21.57
2022-12-05T01:03:01.379Z,14.73
2022-12-05T01:06:09.862Z,11.93
2022-12-05T01:09:16.680Z,15.83
2022-12-05T01:12:32.620Z,14.53
2022-12-05T01:15:47.339Z,12.40
2022-12-05T01:18:59.868Z,12.33
2022-12-05T01:22:44.011Z,14.90
2022-12-05T01:25:52.504Z,15.17
2022-12-05T01:29:00.878Z,14.53
2022-12-05T01:32:07.579Z,16.20
2022-12-05T01:35:18.052Z,14.77
2022-12-05T01:38:26.113Z,14.80
2022-12-05T01:41:35.394Z,13.47
2022-12-05T01:45:06.505Z,15.33
2022-12-05T01:48:18.501Z,14.17
2022-12-05T01:51:26.317Z,11.17
2022-12-05T01:54:35.536Z,13.93
2022-12-05T01:57:41.958Z,13.70
2022-12-05T02:00:48.612Z,12.20
2022-12-05T02:04:00.883Z,14.77
2022-12-05T02:07:06.965Z,15.50
2022-12-05T02:10:16.849Z,11.60
2022-12-05T02:13:50.877Z,12.60
2022-12-05T02:17:09.062Z,11.87
2022-12-05T02:20:38.773Z,9.60
2022-12-05T02:24:29.997Z,10.03
2022-12-05T02:28:11.183Z,11.27
2022-12-05T02:31:23.260Z,13.23
2022-12-05T02:34:38.109Z,10.67
2022-12-05T02:37:54.876Z,13.57
2022-12-05T02:41:10.546Z,11.07
2022-12-05T02:44:20.480Z,11.17
2022-12-05T02:47:32.346Z,11.60
2022-12-05T02:50:44.942Z,9.07
2022-12-05T02:53:53.875Z,10.83
2022-12-05T02:57:04.907Z,9.40
2022-12-05T03:00:11.945Z,8.50
2022-12-05T03:03:24.732Z,9.53
2022-12-05T03:06:33.275Z,12.57
2022-12-05T03:09:46.453Z,10.37
2022-12-05T03:12:57.627Z,10.13
2022-12-05T03:16:09.225Z,12.30
2022-12-05T03:19:20.623Z,10.03
2022-12-05T03:22:33.820Z,10.97
2022-12-05T03:25:48.380Z,9.00
2022-12-05T03:29:03.355Z,9.80
2022-12-05T03:32:13.517Z,7.37
2022-12-05T03:35:28.581Z,13.60
2022-12-05T03:38:38.570Z,8.47
2022-12-05T03:41:51.967Z,8.37
2022-12-05T03:45:03.635Z,7.70
2022-12-05T03:48:17.080Z,8.97
2022-12-05T03:51:30.926Z,10.03
2022-12-05T03:54:40.959Z,8.50
2022-12-05T03:57:55.066Z,8.50
2022-12-05T04:01:04.694Z,9.53
2022-12-05T04:04:16.933Z,11.37
2022-12-05T04:07:26.551Z,9.03
2022-12-05T04:10:49.156Z,12.47
2022-12-05T04:13:58.594Z,13.30
2022-12-05T04:17:10.042Z,10.20
2022-12-05T04:20:36.759Z,11.77
2022-12-05T04:24:05.730Z,9.57
2022-12-05T04:27:24.455Z,12.10
2022-12-05T04:30:37.152Z,9.80
2022-12-05T04:33:47.643Z,9.13
2022-12-05T04:36:58.392Z,8.83
2022-12-05T04:40:12.527Z,8.53
2022-12-05T04:43:22.248Z,8.67
2022-12-05T04:46:29.193Z,8.90
2022-12-05T04:49:38.056Z,9.07
2022-12-05T04:52:52.918Z,10.40
2022-12-05T04:56:09.635Z,11.87
2022-12-05T04:59:22.992Z,10.37
2022-12-05T05:02:39.729Z,11.27
2022-12-05T05:05:56.499Z,9.60
2022-12-05T05:09:03.776Z,9.93
2022-12-05T05:12:18.584Z,8.97
2022-12-05T05:15:24.519Z,10.87
2022-12-05T05:18:31.298Z,10.47
2022-12-05T05:21:39.780Z,10.00
2022-12-05T05:24:45.646Z,10.03
2022-12-05T05:27:55.169Z,12.90
2022-12-05T05:31:06.464Z,8.70
2022-12-05T05:34:16.558Z,9.40
2022-12-05T05:37:22.726Z,10.70
2022-12-05T05:40:29.090Z,10.97
2022-12-05T05:43:40.675Z,8.47
2022-12-05T05:46:47.653Z,8.87
2022-12-05T05:49:54.138Z,11.23
2022-12-05T05:53:00.348Z,13.43
2022-12-05T05:56:08.252Z,10.30
2022-12-05T05:59:15.824Z,10.57
2022-12-05T06:02:25.563Z,11.10
2022-12-05T06:05:38.141Z,11.17
2022-12-05T06:08:54.557Z,10.13
2022-12-05T06:12:00.883Z,11.93
2022-12-05T06:15:10.006Z,11.53
2022-12-05T06:18:17.394Z,11.93
2022-12-05T06:21:26.556Z,11.07
2022-12-05T06:24:32.722Z,12.17
2022-12-05T06:27:38.635Z,9.63
2022-12-05T06:30:46.227Z,8.83
2022-12-05T06:33:54.750Z,11.17
2022-12-05T06:37:03.786Z,9.90
2022-12-05T06:40:11.404Z,13.27
2022-12-05T06:43:21.286Z,9.93
2022-12-05T06:46:32.354Z,11.00
2022-12-05T06:49:44.959Z,10.60
2022-12-05T06:52:57.361Z,12.17
2022-12-05T06:56:21.125Z,13.07
2022-12-05T06:59:29.273Z,14.97
2022-12-05T07:02:43.882Z,10.23
2022-12-05T07:05:58.777Z,11.20
2022-12-05T07:09:06.458Z,11.17
2022-12-05T07:12:13.025Z,10.53
2022-12-05T07:15:22.184Z,8.80
2022-12-05T07:18:31.808Z,10.47
2022-12-05T07:21:38.360Z,14.13
2022-12-05T07:24:47.841Z,10.87
2022-12-05T07:27:57.205Z,10.67
2022-12-05T07:31:05.643Z,10.37
2022-12-05T07:34:16.862Z,10.03
2022-12-05T07:37:22.600Z,12.00
2022-12-05T07:40:30.703Z,8.90
2022-12-05T07:43:38.436Z,15.00
2022-12-05T07:46:45.267Z,9.80
2022-12-05T07:49:53.632Z,9.53
2022-12-05T07:53:05.751Z,12.73
2022-12-05T07:56:15.077Z,10.50
2022-12-05T07:59:21.393Z,10.53
2022-12-05T08:02:30.966Z,8.80
2022-12-05T08:05:39.092Z,9.73
2022-12-05T08:08:46.663Z,11.93
2022-12-05T08:11:59.409Z,9.90
2022-12-05T08:15:06.365Z,10.57
2022-12-05T08:18:12.667Z,12.37
2022-12-05T08:21:29.173Z,11.17
2022-12-05T08:24:35.640Z,9.43
2022-12-05T08:27:44.186Z,10.37
2022-12-05T08:30:50.801Z,10.40
2022-12-05T08:34:01.148Z,12.80
2022-12-05T08:37:09.211Z,7.93
2022-12-05T08:40:15.370Z,9.83
2022-12-05T08:43:23.040Z,9.17
2022-12-05T08:46:31.478Z,8.10
2022-12-05T08:49:37.485Z,8.83
2022-12-05T08:52:48.007Z,13.37
2022-12-05T08:55:54.915Z,8.47
2022-12-05T08:59:20.536Z,11.27
2022-12-05T09:02:25.924Z,10.47
2022-12-05T09:05:42.169Z,9.70
2022-12-05T09:12:36.209Z,10.20
2022-12-05T09:16:04.607Z,10.13
2022-12-05T09:23:15.763Z,10.70
2022-12-05T09:26:59.901Z,8.17
2022-12-05T09:30:21.654Z,9.60
2022-12-05T09:34:07.379Z,7.43
2022-12-05T09:37:40.323Z,9.40
2022-12-05T09:40:58.870Z,7.37
2022-12-05T09:44:23.666Z,7.57
2022-12-05T09:47:52.536Z,6.07
2022-12-05T09:51:03.882Z,7.73
2022-12-05T09:54:18.485Z,6.47
2022-12-05T09:57:34.854Z,6.53
2022-12-05T10:00:50.535Z,7.83
2022-12-05T10:04:26.575Z,6.83
2022-12-05T10:07:38.458Z,9.73
2022-12-05T10:11:00.966Z,7.63
2022-12-05T10:14:26.305Z,7.90
2022-12-05T10:17:43.693Z,9.67
2022-12-05T10:20:54.410Z,7.77
2022-12-05T10:24:05.751Z,8.43
2022-12-05T10:27:19.339Z,9.23
2022-12-05T10:30:31.715Z,10.37
2022-12-05T10:33:48.523Z,9.17
2022-12-05T10:37:01.509Z,9.43
2022-12-05T10:40:08.108Z,8.23
2022-12-05T10:43:26.669Z,10.03
2022-12-05T10:46:34.112Z,9.73
2022-12-05T10:49:41.797Z,8.30
2022-12-05T10:52:48.585Z,10.63
2022-12-05T10:56:29.286Z,11.40
2022-12-05T10:59:28.012Z,12.80
2022-12-05T11:02:40.523Z,11.27
2022-12-05T11:05:53.240Z,9.40
2022-12-05T11:09:04.828Z,8.00
2022-12-05T11:12:45.359Z,10.40
2022-12-05T11:15:59.286Z,10.03
2022-12-05T11:19:34.693Z,9.00
2022-12-05T11:27:04.525Z,7.60
2022-12-05T11:30:50.186Z,8.33
2022-12-05T11:38:30.424Z,8.23
2022-12-05T11:46:38.812Z,6.20
2022-12-05T11:50:32.403Z,6.90
2022-12-05T11:54:42.084Z,9.33
2022-12-05T11:58:56.110Z,6.20
2022-12-05T12:02:51.845Z,6.67
2022-12-05T12:06:14.541Z,7.83
2022-12-05T12:09:48.274Z,5.60
2022-12-05T12:17:11.114Z,5.23
2022-12-05T12:20:56.182Z,5.67
2022-12-05T12:24:14.908Z,5.30
2022-12-05T12:27:42.193Z,6.07
2022-12-05T12:31:19.003Z,6.00
2022-12-05T12:35:17.789Z,7.33
2022-12-05T12:39:21.451Z,5.77
2022-12-05T12:42:37.771Z,6.13
2022-12-05T12:46:20.865Z,6.20
2022-12-05T12:49:58.562Z,6.30
2022-12-05T12:57:32.097Z,5.37
2022-12-05T13:04:44.140Z,5.50
2022-12-05T13:08:03.463Z,6.83
2022-12-05T13:11:15.606Z,6.50
2022-12-05T13:14:41.674Z,4.63
2022-12-05T13:17:54.125Z,6.33
2022-12-05T13:21:14.545Z,4.93
2022-12-05T13:28:04.399Z,5.03
2022-12-05T13:31:26.021Z,6.27
2022-12-05T13:35:05.425Z,7.40
2022-12-05T13:38:42.214Z,6.17
2022-12-05T13:42:29.651Z,5.53
2022-12-05T13:50:27.102Z,7.13
2022-12-05T13:53:47.745Z,6.37
2022-12-05T13:57:03.729Z,7.17
2022-12-05T14:00:46.428Z,8.03
2022-12-05T14:09:03.724Z,5.90
2022-12-05T14:13:18.668Z,7.30
2022-12-05T14:16:52.024Z,7.17
2022-12-05T14:20:31.127Z,8.43
2022-12-05T14:24:19.103Z,8.67
2022-12-05T14:27:56.246Z,8.07
2022-12-05T14:31:24.447Z,10.13
2022-12-05T14:34:44.197Z,7.97
2022-12-05T14:38:08.874Z,8.13
2022-12-05T14:41:22.466Z,7.03
2022-12-05T14:48:09.577Z,8.27
2022-12-05T14:51:58.971Z,7.63
2022-12-05T14:55:14.740Z,11.13
2022-12-05T14:58:37.358Z,9.33
2022-12-05T15:02:09.676Z,8.47
2022-12-05T15:05:33.559Z,11.93
2022-12-05T15:09:35.894Z,9.90
2022-12-05T15:16:28.399Z,11.47
2022-12-05T15:19:51.104Z,9.17
2022-12-05T15:23:13.960Z,8.67
2022-12-05T15:26:47.164Z,8.10
2022-12-05T15:30:01.610Z,10.47
2022-12-05T15:33:19.763Z,9.57
2022-12-05T15:36:50.776Z,9.40
2022-12-05T15:40:11.310Z,9.37
2022-12-05T15:43:39.073Z,13.30
2022-12-05T15:46:46.903Z,8.97
2022-12-05T15:49:59.191Z,9.40
2022-12-05T15:53:24.909Z,10.23
2022-12-05T15:56:49.364Z,9.33
2022-12-05T16:00:21.237Z,8.77
2022-12-05T16:03:58.881Z,9.60
2022-12-05T16:07:30.730Z,7.60
2022-12-05T16:15:06.999Z,7.40
2022-12-05T16:18:34.099Z,7.47
2022-12-05T16:25:52.980Z,10.00
2022-12-05T16:29:52.656Z,8.63
2022-12-05T16:33:28.890Z,7.23
2022-12-05T16:41:16.026Z,9.13
2022-12-05T16:45:18.211Z,8.33
2022-12-05T16:48:59.009Z,9.63
2022-12-05T16:52:21.043Z,8.23
2022-12-05T16:55:49.858Z,8.70
2022-12-05T16:59:26.828Z,8.77
2022-12-05T17:02:44.692Z,8.07
2022-12-05T17:06:00.637Z,8.47
2022-12-05T17:09:12.932Z,8.50
2022-12-05T17:12:35.162Z,6.43
2022-12-05T17:15:44.951Z,7.57
2022-12-05T17:19:09.894Z,9.73
2022-12-05T17:22:36.577Z,7.67
2022-12-05T17:25:57.361Z,10.63
2022-12-05T17:29:14.606Z,9.53
2022-12-05T17:32:34.752Z,8.53
2022-12-05T17:35:59.514Z,7.47
2022-12-05T17:42:59.685Z,7.87
2022-12-05T17:46:25.145Z,9.97
2022-12-05T17:49:55.092Z,5.67
2022-12-05T17:53:26.038Z,7.20
2022-12-05T18:00:24.095Z,7.87
2022-12-05T18:03:47.712Z,7.60
2022-12-05T18:07:12.752Z,9.73
2022-12-05T18:10:43.973Z,6.40
2022-12-05T18:17:57.973Z,6.37
2022-12-05T18:25:05.405Z,7.40
2022-12-05T18:28:33.151Z,6.47
2022-12-05T18:35:24.427Z,8.20
2022-12-05T18:46:58.152Z,6.67
2022-12-05T18:54:25.904Z,9.17
2022-12-05T18:57:47.716Z,25.97
2022-12-05T19:01:22.721Z,19.10
2022-12-05T19:05:28.555Z,11.77
2022-12-05T19:08:49.108Z,9.57
2022-12-05T19:12:04.133Z,13.43
2022-12-05T19:15:47.093Z,7.40
2022-12-05T19:19:14.190Z,8.33
2022-12-05T19:22:33.067Z,9.27
2022-12-05T19:29:10.912Z,8.73
2022-12-05T19:32:30.042Z,11.33
2022-12-05T19:35:51.589Z,9.30
2022-12-05T19:39:15.463Z,9.67
2022-12-05T19:42:31.915Z,9.67
2022-12-05T19:45:42.158Z,9.73
2022-12-05T19:48:48.112Z,12.23
2022-12-05T19:51:54.753Z,12.40
2022-12-05T19:55:03.166Z,8.63
2022-12-05T19:58:09.520Z,9.60
2022-12-05T20:01:21.303Z,9.90
2022-12-05T20:04:28.597Z,11.10
2022-12-05T20:07:38.370Z,7.83
2022-12-05T20:10:46.157Z,8.40
2022-12-05T20:13:52.633Z,9.43
2022-12-05T20:17:06.940Z,10.77
2022-12-05T20:20:13.537Z,8.30
2022-12-05T20:23:20.296Z,10.47
2022-12-05T20:26:30.185Z,8.67
2022-12-05T20:29:41.574Z,9.47
2022-12-05T20:32:49.726Z,7.00
2022-12-05T20:35:59.906Z,8.43
2022-12-05T20:39:08.497Z,7.47
2022-12-05T20:42:23.716Z,10.17
2022-12-05T20:49:34.127Z,7.40
2022-12-05T20:52:55.967Z,10.80
2022-12-05T21:00:15.394Z,10.10
2022-12-05T21:03:49.924Z,9.27
2022-12-05T21:07:10.401Z,11.90
2022-12-05T21:10:27.205Z,11.60
2022-12-05T21:13:43.902Z,15.20
2022-12-05T21:17:04.596Z,12.47
2022-12-05T21:20:13.109Z,14.77
2022-12-05T21:23:35.745Z,11.47
2022-12-05T21:27:06.207Z,11.10
2022-12-05T21:30:17.238Z,10.67
2022-12-05T21:33:48.758Z,11.27
2022-12-05T21:37:04.058Z,12.80
2022-12-05T21:40:12.880Z,12.53
2022-12-05T21:43:21.014Z,11.57
2022-12-05T21:46:29.094Z,8.97
2022-12-05T21:49:37.743Z,9.53
2022-12-05T21:52:43.513Z,9.53
2022-12-05T21:55:50.393Z,8.57
2022-12-05T21:58:57.527Z,9.97
2022-12-05T22:02:04.914Z,7.67
2022-12-05T22:05:13.069Z,7.10
2022-12-05T22:08:21.485Z,7.40
2022-12-05T22:11:28.989Z,9.47
2022-12-05T22:14:35.282Z,6.70
2022-12-05T22:17:42.748Z,7.87
2022-12-05T22:20:58.326Z,7.33
2022-12-05T22:24:04.430Z,7.30
2022-12-05T22:27:11.205Z,9.07
2022-12-05T22:30:17.399Z,7.47
2022-12-05T22:33:23.390Z,9.87
2022-12-05T22:36:32.421Z,8.77
2022-12-05T22:39:40.816Z,8.63
2022-12-05T22:42:46.773Z,8.70
2022-12-05T22:45:53.868Z,6.83
2022-12-05T22:49:02.312Z,6.77
2022-12-05T22:52:13.780Z,8.10
2022-12-05T22:55:21.478Z,7.17
2022-12-05T22:58:29.038Z,6.10
2022-12-05T23:01:37.236Z,7.53
2022-12-05T23:04:45.696Z,6.33
2022-12-05T23:07:59.185Z,7.43
2022-12-05T23:11:10.129Z,7.40
2022-12-05T23:14:28.883Z,7.60
2022-12-05T23:17:43.050Z,5.20
2022-12-05T23:20:54.710Z,6.37
2022-12-05T23:24:08.936Z,8.60
2022-12-05T23:27:21.678Z,6.77
2022-12-05T23:30:31.132Z,8.60
2022-12-05T23:33:41.312Z,6.43
2022-12-05T23:36:52.445Z,5.77
2022-12-05T23:40:00.778Z,7.00
2022-12-05T23:43:08.550Z,7.33
2022-12-05T23:46:20.375Z,7.27
2022-12-05T23:49:28.793Z,5.53
2022-12-05T23:52:40.624Z,6.60
2022-12-05T23:55:49.780Z,6.07
2022-12-05T23:58:58.605Z,7.07
